createdAt,value
2023-05-14T00:01:02.280Z,0.85
2023-05-14T00:03:31.212Z,0.78
2023-05-14T00:05:59.515Z,0.70
2023-05-14T00:08:27.716Z,0.66
2023-05-14T00:10:55.906Z,0.63
2023-05-14T00:13:25.890Z,0.63
2023-05-14T00:15:54.168Z,0.64
2023-05-14T00:18:22.450Z,0.66
2023-05-14T00:20:54.957Z,0.68
2023-05-14T00:23:23.921Z,0.66
2023-05-14T00:25:52.220Z,0.63
2023-05-14T00:28:21.069Z,0.57
2023-05-14T00:30:50.054Z,0.54
2023-05-14T00:33:18.316Z,0.47
2023-05-14T00:35:47.312Z,0.44
2023-05-14T00:38:17.248Z,0.42
2023-05-14T00:40:51.399Z,0.41
2023-05-14T00:43:23.653Z,0.44
2023-05-14T00:45:54.841Z,0.46
2023-05-14T00:48:23.698Z,0.47
2023-05-14T00:50:52.363Z,0.51
2023-05-14T00:53:21.065Z,0.48
2023-05-14T00:55:50.804Z,0.42
2023-05-14T00:58:20.004Z,0.37
2023-05-14T01:00:48.438Z,0.33
2023-05-14T01:03:16.890Z,0.30
2023-05-14T01:05:58.418Z,0.28
2023-05-14T01:09:08.335Z,0.27
2023-05-14T01:11:48.116Z,0.30
2023-05-14T01:14:31.528Z,0.30
2023-05-14T01:17:02.450Z,0.32
2023-05-14T01:19:41.964Z,0.31
2023-05-14T01:22:11.965Z,0.29
2023-05-14T01:24:40.816Z,0.28
2023-05-14T01:27:21.413Z,0.26
2023-05-14T01:30:03.259Z,0.21
2023-05-14T01:32:33.754Z,0.14
2023-05-14T01:35:02.898Z,0.10
2023-05-14T01:37:32.390Z,0.07
2023-05-14T01:40:01.781Z,0.07
2023-05-14T01:42:30.926Z,0.12
2023-05-14T01:45:00.031Z,0.15
2023-05-14T01:47:28.463Z,0.16
2023-05-14T01:49:56.775Z,0.15
2023-05-14T01:52:25.110Z,0.11
2023-05-14T01:54:53.339Z,0.05
2023-05-14T01:57:21.651Z,0.01
2023-05-14T01:59:49.858Z,0.00
2023-05-14T02:02:18.174Z,0.01
2023-05-14T02:04:46.776Z,0.02
2023-05-14T02:07:15.513Z,0.06
2023-05-14T02:09:43.987Z,0.09
2023-05-14T02:12:12.347Z,0.10
2023-05-14T02:14:40.635Z,0.12
2023-05-14T02:17:09.160Z,0.11
2023-05-14T02:19:37.379Z,0.08
2023-05-14T02:22:05.831Z,0.04
2023-05-14T02:24:35.368Z,0.00
2023-05-14T02:27:04.317Z,-0.02
2023-05-14T02:29:32.673Z,-0.01
2023-05-14T02:32:01.002Z,0.02
2023-05-14T02:34:29.268Z,0.08
2023-05-14T02:36:57.483Z,0.14
2023-05-14T02:39:25.678Z,0.13
2023-05-14T02:41:53.940Z,0.13
2023-05-14T02:44:22.127Z,0.12
2023-05-14T02:46:50.513Z,0.09
2023-05-14T02:49:18.810Z,0.05
2023-05-14T02:51:47.102Z,0.02
2023-05-14T02:54:16.832Z,0.03
2023-05-14T02:56:45.171Z,0.04
2023-05-14T02:59:13.391Z,0.07
2023-05-14T03:01:42.708Z,0.10
2023-05-14T03:04:11.434Z,0.11
2023-05-14T03:06:39.779Z,0.13
2023-05-14T03:09:08.021Z,0.14
2023-05-14T03:11:36.307Z,0.17
2023-05-14T03:14:04.638Z,0.17
2023-05-14T03:16:32.969Z,0.18
2023-05-14T03:19:01.318Z,0.21
2023-05-14T03:21:29.825Z,0.23
2023-05-14T03:23:58.094Z,0.29
2023-05-14T03:26:26.382Z,0.38
2023-05-14T03:28:55.172Z,0.44
2023-05-14T03:31:23.462Z,0.51
2023-05-14T03:33:51.976Z,0.57
2023-05-14T03:36:20.406Z,0.65
2023-05-14T03:38:49.127Z,0.72
2023-05-14T03:41:20.157Z,0.78
2023-05-14T03:43:48.484Z,0.84
2023-05-14T03:46:16.829Z,0.91
2023-05-14T03:48:45.298Z,1.02
2023-05-14T03:51:13.696Z,1.12
2023-05-14T03:53:42.026Z,1.25
2023-05-14T03:56:10.243Z,1.37
2023-05-14T03:58:38.577Z,1.49
2023-05-14T04:01:06.839Z,1.58
2023-05-14T04:03:35.291Z,1.64
2023-05-14T04:06:03.748Z,1.70
2023-05-14T04:08:32.044Z,1.73
2023-05-14T04:11:01.664Z,1.79
2023-05-14T04:13:29.935Z,1.92
2023-05-14T04:15:58.226Z,2.05
2023-05-14T04:18:26.629Z,2.19
2023-05-14T04:20:56.148Z,2.37
2023-05-14T04:23:24.521Z,2.54
2023-05-14T04:25:52.779Z,2.70
2023-05-14T04:28:21.004Z,2.81
2023-05-14T04:30:49.524Z,2.92
2023-05-14T04:33:17.760Z,3.00
2023-05-14T04:35:47.029Z,3.11
2023-05-14T04:38:15.652Z,3.19
2023-05-14T04:40:43.949Z,3.28
2023-05-14T04:43:12.272Z,3.39
2023-05-14T04:45:41.242Z,3.52
2023-05-14T04:48:09.682Z,3.66
2023-05-14T04:50:38.072Z,3.80
2023-05-14T04:53:06.351Z,3.98
2023-05-14T04:55:34.650Z,4.16
2023-05-14T04:58:03.098Z,4.34
2023-05-14T05:00:31.408Z,4.57
2023-05-14T05:02:59.873Z,4.93
2023-05-14T05:05:28.245Z,5.39
2023-05-14T05:07:56.489Z,5.92
2023-05-14T05:10:25.158Z,6.48
2023-05-14T05:12:53.742Z,7.06
2023-05-14T05:15:21.962Z,7.71
2023-05-14T05:17:50.198Z,8.40
2023-05-14T05:20:18.839Z,9.15
2023-05-14T05:22:47.472Z,9.87
2023-05-14T05:25:15.731Z,10.53
2023-05-14T05:27:43.937Z,11.15
2023-05-14T05:30:12.817Z,11.75
2023-05-14T05:32:41.133Z,12.38
2023-05-14T05:35:09.951Z,13.02
2023-05-14T05:37:38.145Z,13.61
2023-05-14T05:40:07.276Z,14.12
2023-05-14T05:42:35.601Z,14.51
2023-05-14T05:45:04.200Z,15.00
2023-05-14T05:47:32.514Z,15.34
2023-05-14T05:50:00.747Z,15.71
2023-05-14T05:52:29.067Z,16.14
2023-05-14T05:54:57.319Z,16.29
2023-05-14T05:57:27.254Z,16.63
2023-05-14T05:59:55.656Z,16.97
2023-05-14T06:02:25.372Z,17.28
2023-05-14T06:04:53.900Z,17.53
2023-05-14T06:07:22.213Z,17.82
2023-05-14T06:09:50.415Z,17.77
2023-05-14T06:12:18.646Z,17.86
2023-05-14T06:14:46.785Z,17.97
2023-05-14T06:17:15.022Z,18.33
2023-05-14T06:19:43.245Z,18.37
2023-05-14T06:22:11.489Z,18.29
2023-05-14T06:24:39.562Z,18.77
2023-05-14T06:27:07.835Z,18.76
2023-05-14T06:29:36.105Z,19.09
2023-05-14T06:32:04.929Z,19.38
2023-05-14T06:34:33.138Z,19.10
2023-05-14T06:37:04.277Z,19.26
2023-05-14T06:39:32.646Z,19.31
2023-05-14T06:42:00.886Z,19.57
2023-05-14T06:44:32.004Z,19.82
2023-05-14T06:47:00.605Z,19.92
2023-05-14T06:49:29.050Z,20.08
2023-05-14T06:51:57.371Z,20.13
2023-05-14T06:54:25.737Z,20.58
2023-05-14T06:56:54.410Z,20.28
2023-05-14T06:59:22.682Z,20.40
2023-05-14T07:01:51.046Z,20.52
2023-05-14T07:04:19.444Z,20.34
2023-05-14T07:06:47.816Z,20.43
2023-05-14T07:09:16.332Z,20.76
2023-05-14T07:11:44.491Z,21.02
2023-05-14T07:14:13.118Z,20.96
2023-05-14T07:16:42.421Z,21.42
2023-05-14T07:19:10.764Z,21.66
2023-05-14T07:21:38.921Z,21.68
2023-05-14T07:24:07.393Z,21.78
2023-05-14T07:26:35.664Z,21.71
2023-05-14T07:29:03.909Z,21.88
2023-05-14T07:31:32.220Z,21.83
2023-05-14T07:34:00.607Z,21.93
2023-05-14T07:36:28.934Z,22.03
2023-05-14T07:38:57.395Z,22.18
2023-05-14T07:41:25.718Z,22.22
2023-05-14T07:43:54.090Z,22.45
2023-05-14T07:46:22.424Z,22.27
2023-05-14T07:48:51.337Z,22.08
2023-05-14T07:51:19.791Z,21.98
2023-05-14T07:53:47.928Z,22.33
2023-05-14T07:56:16.136Z,22.45
2023-05-14T07:58:44.331Z,22.38
2023-05-14T08:01:13.091Z,22.60
2023-05-14T08:03:41.534Z,22.07
2023-05-14T08:06:09.893Z,21.96
2023-05-14T08:08:38.259Z,22.47
2023-05-14T08:11:06.630Z,22.88
2023-05-14T08:13:34.922Z,23.27
2023-05-14T08:16:03.238Z,23.41
2023-05-14T08:18:31.582Z,23.46
2023-05-14T08:21:01.011Z,23.79
2023-05-14T08:23:30.551Z,24.01
2023-05-14T08:25:59.471Z,24.06
2023-05-14T08:28:28.070Z,24.02
2023-05-14T08:30:56.294Z,24.00
2023-05-14T08:33:24.528Z,24.22
2023-05-14T08:35:56.421Z,24.04
2023-05-14T08:38:24.645Z,23.77
2023-05-14T08:40:59.972Z,23.44
2023-05-14T08:43:46.157Z,23.31
2023-05-14T08:46:17.561Z,23.71
2023-05-14T08:48:51.368Z,23.67
2023-05-14T08:51:19.702Z,23.27
2023-05-14T08:53:48.188Z,23.23
2023-05-14T08:56:18.459Z,23.22
2023-05-14T08:58:46.688Z,22.78
2023-05-14T09:01:14.956Z,22.73
2023-05-14T09:03:44.419Z,22.91
2023-05-14T09:06:14.613Z,22.90
2023-05-14T09:08:43.095Z,22.76
2023-05-14T09:11:11.386Z,22.58
2023-05-14T09:13:39.646Z,22.37
2023-05-14T09:16:07.999Z,22.33
2023-05-14T09:18:37.069Z,22.35
2023-05-14T09:21:05.693Z,22.13
2023-05-14T09:23:34.731Z,22.16
2023-05-14T09:26:06.256Z,22.21
2023-05-14T09:28:34.562Z,21.90
2023-05-14T09:31:03.185Z,21.56
2023-05-14T09:33:31.702Z,21.40
2023-05-14T09:36:00.949Z,20.78
2023-05-14T09:38:31.033Z,20.84
2023-05-14T09:41:00.871Z,20.78
2023-05-14T09:43:29.151Z,20.59
2023-05-14T09:45:57.374Z,20.55
2023-05-14T09:48:26.264Z,20.47
2023-05-14T09:50:54.726Z,20.23
2023-05-14T09:53:23.050Z,20.12
2023-05-14T09:55:51.429Z,19.99
2023-05-14T09:58:19.656Z,20.04
2023-05-14T10:00:48.095Z,19.89
2023-05-14T10:03:19.766Z,19.84
2023-05-14T10:05:51.167Z,20.14
2023-05-14T10:08:27.937Z,20.24
2023-05-14T10:10:59.196Z,20.12
2023-05-14T10:13:40.053Z,20.22
2023-05-14T10:16:22.157Z,20.21
2023-05-14T10:18:57.174Z,20.28
2023-05-14T10:21:27.015Z,20.04
2023-05-14T10:23:55.963Z,20.12
2023-05-14T10:26:25.494Z,20.19
2023-05-14T10:28:54.008Z,20.10
2023-05-14T10:31:47.824Z,20.05
2023-05-14T10:34:34.882Z,20.20
2023-05-14T10:37:08.711Z,20.43
2023-05-14T10:39:54.084Z,20.38
2023-05-14T10:42:23.690Z,20.34
2023-05-14T10:45:01.861Z,20.44
2023-05-14T10:47:32.071Z,20.53
2023-05-14T10:50:02.649Z,20.41
2023-05-14T10:52:32.367Z,20.37
2023-05-14T10:55:03.642Z,20.38
2023-05-14T10:57:32.903Z,20.63
2023-05-14T11:00:01.876Z,20.86
2023-05-14T11:02:38.618Z,21.00
2023-05-14T11:05:11.686Z,21.08
2023-05-14T11:07:48.501Z,21.08
2023-05-14T11:10:22.137Z,20.93
2023-05-14T11:12:51.793Z,20.67
2023-05-14T11:15:23.509Z,20.74
2023-05-14T11:17:53.067Z,20.70
2023-05-14T11:20:21.995Z,20.61
2023-05-14T11:22:51.948Z,20.61
2023-05-14T11:25:21.856Z,20.72
2023-05-14T11:27:50.552Z,20.70
2023-05-14T11:30:20.270Z,20.67
2023-05-14T11:32:50.204Z,20.79
2023-05-14T11:35:18.916Z,20.79
2023-05-14T11:37:55.098Z,20.80
2023-05-14T11:40:23.664Z,20.80
2023-05-14T11:42:53.660Z,20.75
2023-05-14T11:45:27.140Z,20.81
2023-05-14T11:47:55.599Z,20.48
2023-05-14T11:50:24.051Z,20.63
2023-05-14T11:52:57.257Z,20.71
2023-05-14T11:55:25.653Z,20.88
2023-05-14T11:57:54.511Z,21.08
2023-05-14T12:00:24.874Z,21.12
2023-05-14T12:02:54.614Z,21.11
2023-05-14T12:05:22.814Z,21.11
2023-05-14T12:07:51.027Z,21.05
2023-05-14T12:10:19.246Z,20.95
2023-05-14T12:12:48.855Z,21.04
2023-05-14T12:15:21.910Z,21.10
2023-05-14T12:17:51.956Z,21.14
2023-05-14T12:20:20.641Z,21.24
2023-05-14T12:22:49.135Z,21.32
2023-05-14T12:25:17.520Z,21.13
2023-05-14T12:27:45.951Z,21.02
2023-05-14T12:32:46.853Z,20.57
2023-05-14T12:35:15.312Z,20.39
2023-05-14T12:37:43.854Z,20.43
2023-05-14T12:40:12.340Z,20.65
2023-05-14T12:42:40.564Z,20.80
2023-05-14T12:45:09.062Z,20.71
2023-05-14T12:47:37.612Z,20.69
2023-05-14T12:50:06.632Z,20.61
2023-05-14T12:55:07.730Z,20.52
2023-05-14T12:57:36.042Z,20.50
2023-05-14T13:00:08.431Z,20.70
2023-05-14T13:02:42.731Z,20.65
2023-05-14T13:05:12.689Z,20.45
2023-05-14T13:07:41.603Z,20.24
2023-05-14T13:10:10.473Z,20.05
2023-05-14T13:12:38.920Z,19.90
2023-05-14T13:15:08.093Z,19.84
2023-05-14T13:17:36.669Z,19.65
2023-05-14T13:20:05.406Z,19.43
2023-05-14T13:22:33.669Z,19.27
2023-05-14T13:25:01.988Z,19.07
2023-05-14T13:27:30.632Z,18.96
2023-05-14T13:29:58.914Z,18.89
2023-05-14T13:32:27.208Z,18.67
2023-05-14T13:34:55.805Z,18.56
2023-05-14T13:37:25.713Z,18.39
2023-05-14T13:39:53.891Z,18.36
2023-05-14T13:42:22.262Z,18.23
2023-05-14T13:44:50.921Z,18.20
2023-05-14T13:47:19.169Z,18.11
2023-05-14T13:49:47.393Z,17.97
2023-05-14T13:52:15.753Z,17.83
2023-05-14T13:54:44.086Z,17.71
2023-05-14T13:57:12.415Z,17.60
2023-05-14T13:59:41.036Z,17.49
2023-05-14T14:02:09.715Z,17.50
2023-05-14T14:04:38.179Z,17.47
2023-05-14T14:07:09.132Z,17.44
2023-05-14T14:09:37.356Z,17.44
2023-05-14T14:12:06.339Z,17.37
2023-05-14T14:14:34.646Z,17.31
2023-05-14T14:17:02.951Z,17.32
2023-05-14T14:19:31.138Z,17.22
2023-05-14T14:21:59.286Z,17.21
2023-05-14T14:24:27.604Z,17.28
2023-05-14T14:26:55.834Z,17.31
2023-05-14T14:29:24.126Z,17.32
2023-05-14T14:31:52.515Z,17.29
2023-05-14T14:34:21.089Z,17.28
2023-05-14T14:36:49.295Z,17.24
2023-05-14T14:39:17.539Z,17.17
2023-05-14T14:41:45.871Z,17.01
2023-05-14T14:44:14.133Z,16.92
2023-05-14T14:46:43.093Z,16.83
2023-05-14T14:49:11.290Z,16.76
2023-05-14T14:51:39.736Z,16.75
2023-05-14T14:54:08.044Z,16.63
2023-05-14T14:56:36.367Z,16.52
2023-05-14T14:59:04.661Z,16.45
2023-05-14T15:01:33.460Z,16.32
2023-05-14T15:04:01.756Z,16.23
2023-05-14T15:06:29.948Z,16.20
2023-05-14T15:08:58.216Z,16.18
2023-05-14T15:11:26.810Z,16.15
2023-05-14T15:13:55.115Z,16.12
2023-05-14T15:16:23.403Z,16.14
2023-05-14T15:18:51.638Z,16.14
2023-05-14T15:21:19.924Z,16.20
2023-05-14T15:23:48.183Z,16.16
2023-05-14T15:26:16.528Z,16.11
2023-05-14T15:28:44.725Z,16.09
2023-05-14T15:31:12.910Z,16.07
2023-05-14T15:33:41.882Z,15.97
2023-05-14T15:36:10.184Z,15.84
2023-05-14T15:38:38.433Z,15.73
2023-05-14T15:41:06.854Z,15.57
2023-05-14T15:43:35.545Z,15.45
2023-05-14T15:46:03.803Z,15.36
2023-05-14T15:48:32.071Z,15.35
2023-05-14T15:51:00.386Z,15.29
2023-05-14T15:53:28.918Z,15.21
2023-05-14T15:55:57.225Z,15.12
2023-05-14T15:58:26.469Z,15.05
2023-05-14T16:00:54.812Z,15.02
2023-05-14T16:03:23.201Z,14.95
2023-05-14T16:05:52.286Z,14.93
2023-05-14T16:08:20.482Z,14.88
2023-05-14T16:10:48.720Z,14.84
2023-05-14T16:13:16.953Z,14.77
2023-05-14T16:15:45.070Z,14.73
2023-05-14T16:18:13.282Z,14.66
2023-05-14T16:20:41.632Z,14.58
2023-05-14T16:23:09.854Z,14.50
2023-05-14T16:25:38.619Z,14.38
2023-05-14T16:28:08.122Z,14.31
2023-05-14T16:30:36.329Z,14.16
2023-05-14T16:33:04.501Z,14.08
2023-05-14T16:35:32.826Z,13.97
2023-05-14T16:38:01.854Z,13.89
2023-05-14T16:40:30.445Z,13.80
2023-05-14T16:42:58.651Z,13.72
2023-05-14T16:45:27.135Z,13.66
2023-05-14T16:47:55.493Z,13.62
2023-05-14T16:50:23.752Z,13.58
2023-05-14T16:52:52.324Z,13.54
2023-05-14T16:55:20.762Z,13.47
2023-05-14T16:57:49.038Z,13.40
2023-05-14T17:00:18.057Z,13.38
2023-05-14T17:02:49.301Z,13.35
2023-05-14T17:05:17.708Z,13.30
2023-05-14T17:07:45.925Z,13.24
2023-05-14T17:10:14.461Z,13.20
2023-05-14T17:12:42.751Z,13.17
2023-05-14T17:15:10.325Z,13.12
2023-05-14T17:17:38.563Z,13.05
2023-05-14T17:20:08.294Z,12.97
2023-05-14T17:22:36.953Z,12.91
2023-05-14T17:25:05.794Z,12.83
2023-05-14T17:27:34.086Z,12.78
2023-05-14T17:30:03.792Z,12.71
2023-05-14T17:32:32.219Z,12.66
2023-05-14T17:35:00.589Z,12.61
2023-05-14T17:37:29.103Z,12.56
2023-05-14T17:39:57.432Z,12.51
2023-05-14T17:42:25.717Z,12.44
2023-05-14T17:44:54.095Z,12.39
2023-05-14T17:47:22.365Z,12.35
2023-05-14T17:49:51.381Z,12.30
2023-05-14T17:52:19.526Z,12.23
2023-05-14T17:54:47.692Z,12.18
2023-05-14T17:57:16.018Z,12.14
2023-05-14T17:59:44.217Z,12.09
2023-05-14T18:02:12.434Z,12.05
2023-05-14T18:04:40.734Z,12.02
2023-05-14T18:07:08.983Z,11.97
2023-05-14T18:09:37.296Z,11.93
2023-05-14T18:12:05.880Z,11.89
2023-05-14T18:14:34.441Z,11.84
2023-05-14T18:17:02.848Z,11.82
2023-05-14T18:19:31.609Z,11.78
2023-05-14T18:21:59.766Z,11.72
2023-05-14T18:24:28.036Z,11.68
2023-05-14T18:26:56.265Z,11.64
2023-05-14T18:29:24.515Z,11.60
2023-05-14T18:31:52.792Z,11.55
2023-05-14T18:34:21.006Z,11.51
2023-05-14T18:36:50.265Z,11.44
2023-05-14T18:39:18.899Z,11.41
2023-05-14T18:41:47.112Z,11.38
2023-05-14T18:44:15.306Z,11.37
2023-05-14T18:46:43.633Z,11.34
2023-05-14T18:49:12.103Z,11.32
2023-05-14T18:51:40.354Z,11.29
2023-05-14T18:54:08.671Z,11.25
2023-05-14T18:56:37.542Z,11.17
2023-05-14T18:59:05.721Z,11.11
2023-05-14T19:01:33.983Z,11.06
2023-05-14T19:04:05.188Z,10.99
2023-05-14T19:06:33.891Z,10.94
2023-05-14T19:09:02.221Z,10.89
2023-05-14T19:11:30.466Z,10.84
2023-05-14T19:13:58.661Z,10.78
2023-05-14T19:16:27.220Z,10.73
2023-05-14T19:18:56.960Z,10.68
2023-05-14T19:21:25.282Z,10.63
2023-05-14T19:23:53.553Z,10.59
2023-05-14T19:26:21.985Z,10.52
2023-05-14T19:28:50.687Z,10.47
2023-05-14T19:31:18.955Z,10.40
2023-05-14T19:33:47.195Z,10.35
2023-05-14T19:36:15.749Z,10.27
2023-05-14T19:38:43.963Z,10.21
2023-05-14T19:41:12.253Z,10.20
2023-05-14T19:43:40.915Z,10.18
2023-05-14T19:46:09.314Z,10.13
2023-05-14T19:48:38.970Z,10.07
2023-05-14T19:51:07.271Z,10.03
2023-05-14T19:53:36.007Z,9.99
2023-05-14T19:56:04.397Z,9.94
2023-05-14T19:58:32.699Z,9.92
2023-05-14T20:01:01.047Z,9.87
2023-05-14T20:03:30.119Z,9.81
2023-05-14T20:05:58.404Z,9.77
2023-05-14T20:08:26.731Z,9.73
2023-05-14T20:10:55.416Z,9.66
2023-05-14T20:13:25.251Z,9.61
2023-05-14T20:15:55.358Z,9.54
2023-05-14T20:18:23.632Z,9.51
2023-05-14T20:20:51.990Z,9.47
2023-05-14T20:23:20.991Z,9.44
2023-05-14T20:25:49.328Z,9.37
2023-05-14T20:28:17.609Z,9.30
2023-05-14T20:30:46.531Z,9.28
2023-05-14T20:33:15.146Z,9.25
2023-05-14T20:35:44.258Z,9.20
2023-05-14T20:38:13.573Z,9.15
2023-05-14T20:40:41.960Z,9.18
2023-05-14T20:43:10.399Z,9.17
2023-05-14T20:45:39.263Z,9.16
2023-05-14T20:48:10.288Z,9.15
2023-05-14T20:50:38.621Z,9.17
2023-05-14T20:53:07.039Z,9.16
2023-05-14T20:55:35.470Z,9.11
2023-05-14T20:58:03.842Z,9.08
2023-05-14T21:00:32.124Z,9.07
2023-05-14T21:03:00.724Z,9.05
2023-05-14T21:05:29.221Z,9.03
2023-05-14T21:07:57.491Z,9.02
2023-05-14T21:10:25.899Z,8.99
2023-05-14T21:12:54.511Z,8.96
2023-05-14T21:15:23.422Z,8.93
2023-05-14T21:17:51.913Z,8.89
2023-05-14T21:20:20.254Z,8.86
2023-05-14T21:22:48.441Z,8.82
2023-05-14T21:25:17.149Z,8.79
2023-05-14T21:27:45.558Z,8.77
2023-05-14T21:30:14.049Z,8.77
2023-05-14T21:32:42.463Z,8.75
2023-05-14T21:35:10.791Z,8.74
2023-05-14T21:37:39.971Z,8.74
2023-05-14T21:40:09.504Z,8.73
2023-05-14T21:42:38.362Z,8.71
2023-05-14T21:45:07.103Z,8.70
2023-05-14T21:47:35.613Z,8.69
2023-05-14T21:50:05.036Z,8.69
2023-05-14T21:52:33.730Z,8.68
2023-05-14T21:55:01.978Z,8.69
2023-05-14T21:57:33.122Z,8.69
2023-05-14T22:00:04.689Z,8.69
2023-05-14T22:02:32.890Z,8.68
2023-05-14T22:05:01.508Z,8.70
2023-05-14T22:07:29.782Z,8.68
2023-05-14T22:09:57.972Z,8.68
2023-05-14T22:12:26.940Z,8.66
2023-05-14T22:14:55.202Z,8.60
2023-05-14T22:17:23.577Z,8.54
2023-05-14T22:19:51.932Z,8.47
2023-05-14T22:22:20.090Z,8.43
2023-05-14T22:24:48.308Z,8.39
2023-05-14T22:27:16.669Z,8.38
2023-05-14T22:29:45.156Z,8.40
2023-05-14T22:32:13.426Z,8.41
2023-05-14T22:34:41.714Z,8.45
2023-05-14T22:37:10.046Z,8.52
2023-05-14T22:39:38.485Z,8.58
2023-05-14T22:42:06.736Z,8.62
2023-05-14T22:44:36.721Z,8.65
2023-05-14T22:47:05.400Z,8.68
2023-05-14T22:49:33.602Z,8.69
2023-05-14T22:52:01.876Z,8.68
2023-05-14T22:54:30.137Z,8.67
2023-05-14T22:56:58.698Z,8.65
2023-05-14T22:59:26.846Z,8.64
2023-05-14T23:01:55.126Z,8.63
2023-05-14T23:04:23.467Z,8.64
2023-05-14T23:06:52.052Z,8.63
2023-05-14T23:09:20.649Z,8.62
2023-05-14T23:11:48.892Z,8.57
2023-05-14T23:14:18.132Z,8.54
2023-05-14T23:16:46.444Z,8.52
2023-05-14T23:19:14.777Z,8.49
2023-05-14T23:21:43.129Z,8.45
2023-05-14T23:24:11.380Z,8.41
2023-05-14T23:26:39.827Z,8.36
2023-05-14T23:29:08.131Z,8.33
2023-05-14T23:31:36.953Z,8.30
2023-05-14T23:34:05.297Z,8.25
2023-05-14T23:36:33.639Z,8.23
2023-05-14T23:39:01.953Z,8.20
2023-05-14T23:41:30.250Z,8.21
2023-05-14T23:43:58.576Z,8.21
2023-05-14T23:46:27.120Z,8.24
2023-05-14T23:48:57.238Z,8.27
2023-05-14T23:51:27.263Z,8.31
2023-05-14T23:53:58.664Z,8.33
2023-05-14T23:56:29.370Z,8.35
2023-05-14T23:58:57.714Z,8.33
